Syracuse Hancock International Airport
KSYR : now visible

Airfield :











YOU CAN JOIN US ON...

 
LOGIN :

Register | Disclaimer

   EN    FR    IT 

 









Legend :    VFR   Marginal VFR   IFR   Intensive IFR   Very Intensive IFR
Visi :
Ceiling :
>= 8 km
>= 3000ft
5 to 8 km
1000 to 3000 ft
1500m to 5 km
500 to 1000 ft
800 to 1500m
200 to 500 ft
< 800m
< 200 ft
Symbols :   Thunderstorms  Fog  Heavy snow  Heavy precipitations  Wind > 20 kt







- Airport Elevation : 421 ft
- IATA code : SYR


KSYR - Syracuse Hancock International

CURRENT METAR :
  • 201054Z 11005KT 10SM FEW220 OVC240 M11/M14 A3053 RMK AO2 SLP342 T11111144

EXPIRED METARs :
  • 200954Z 10005KT 10SM FEW220 BKN250 M12/M15 A3056 RMK AO2 SLP353 T11171150
  • 200854Z 09005KT 10SM FEW027 BKN240 M12/M15 A3055 RMK AO2 SLP349 T11221150 58012

TAF KSYR
Valid from the 20 at 12:00 until the 21 at 12:00 UTC


201122Z 2012/2112 VRB04KT P6SM BKN100
FM201800 13010KT P6SM OVC050
FM202000 13008KT 4SM -SN OVC025
FM210200 12010KT 5SM -SNPL OVC015 WS020/20040KT
FM210400 15010KT 3SM -FZRAPL OVC020 WS020/20040KT
FM210900 19008KT P6SM -RA OVC018 WS020/23040KT
KZBW FIR / North America



MET'MAP, your aeronautical weather chart ! - Copyright ORBIFLY December 2007 - Disclaimer

ORBIFLY MET'MAP TEAM :

Programming & Development : Alexandra Zaïnal
Concept & Development : Baudouin d'Aumeries
Co-Development & Prog : Marc-Olivier Méhu
Technical & hardware support : Manuel Goepfert

Contact : metmap@orbifly.com




SOURCES & CREDITS :

   NOAA       Earth
Advisory